Columbus Air Force Base
KCBM : now visible

Airfield :











YOU CAN JOIN US ON...

 
LOGIN :

Register | Disclaimer

   EN    FR    IT 

 









Legend :    VFR   Marginal VFR   IFR   Intensive IFR   Very Intensive IFR
Visi :
Ceiling :
>= 8 km
>= 3000ft
5 to 8 km
1000 to 3000 ft
1500m to 5 km
500 to 1000 ft
800 to 1500m
200 to 500 ft
< 800m
< 200 ft
Symbols :   Thunderstorms  Fog  Heavy snow  Heavy precipitations  Wind > 20 kt






- Airport Elevation : 219 ft


KCBM - Columbus Air Force Base

CURRENT METAR :
  • 250421Z AUTO 34005KT 3SM BR OVC003 13/12 A2998 RMK AO2 SLP155 $

EXPIRED METARs :
  • 250411Z AUTO 35005KT 4SM BR OVC003 13/12 A2999 RMK AO2 CIG 002 RWY31C SLP158 $
  • 250356Z AUTO 34006KT 6SM BR OVC003 13/12 A2999 RMK AO2 CIG 002 RWY31C SLP158 T01280119 $
  • 250326Z AUTO 36006KT 5SM BR OVC003 13/12 A2999 RMK AO2 SLP158 $
  • 250321Z AUTO 36003KT 4SM BR OVC003 13/12 A2999 RMK AO2 SLP158 $
  • 250306Z AUTO 36005KT 5SM BR OVC004 13/12 A2999 RMK AO2 CIG 003 RWY31C SLP158 $
  • 250256Z AUTO 36006KT 5SM BR OVC005 13/12 A2999 RMK AO2 CIG 004 RWY31C SLP158 T01300119 51004 $
  • 250216Z AUTO 35006KT 10SM OVC005 13/12 A2998 RMK AO2 SLP155 $
  • 250201Z AUTO 33006KT 10SM OVC004 13/12 A2999 RMK AO2 CIG 004V006 SLP158 $
  • 250156Z AUTO 33006KT 10SM OVC006 13/12 A2999 RMK AO2 CIG 005 RWY31C SLP158 T01330120 $
  • 250146Z AUTO 34005KT 10SM OVC006 13/12 A2999 RMK AO2 CIG 005 RWY31C SLP158 $

Expired Forecast.
KZME FIR / North America



MET'MAP, your aeronautical weather chart ! - Copyright ORBIFLY December 2007 - Disclaimer

ORBIFLY MET'MAP TEAM :

Programming & Development : Alexandra Zaïnal
Concept & original design : Baudouin d'Aumeries
Assistance for programming : Marc-Olivier Méhu
Technical & hardware support : Manuel Goepfert

Contact : metmap@orbifly.com




SOURCES & CREDITS :

   NOAA       Earth
Advisory